createdAt,value
2019-02-22T00:01:32.436Z,97657.25
2019-02-22T00:04:03.072Z,97655.95
2019-02-22T00:06:33.547Z,97649.03
2019-02-22T00:09:05.312Z,97646.06
2019-02-22T00:11:35.814Z,97648.00
2019-02-22T00:14:06.225Z,97649.96
2019-02-22T00:16:36.510Z,97654.51
2019-02-22T00:19:07.002Z,97650.23
2019-02-22T00:21:37.359Z,97652.34
2019-02-22T00:24:07.785Z,97658.69
2019-02-22T00:26:38.219Z,97652.14
2019-02-22T00:29:08.530Z,97654.37
2019-02-22T00:31:39.109Z,97646.19
2019-02-22T00:34:09.417Z,97647.49
2019-02-22T00:36:40.076Z,97650.08
2019-02-22T00:39:10.539Z,97650.70
2019-02-22T00:41:41.039Z,97649.73
2019-02-22T00:44:11.495Z,97649.73
2019-02-22T00:46:41.823Z,97638.95
2019-02-22T00:49:12.311Z,97628.83
2019-02-22T00:51:42.759Z,97642.88
2019-02-22T00:54:13.080Z,97627.52
2019-02-22T00:56:43.385Z,97629.48
2019-02-22T00:59:13.862Z,97628.11
2019-02-22T01:01:44.260Z,97632.48
2019-02-22T01:04:14.721Z,97620.67
2019-02-22T01:06:45.123Z,97616.55
2019-02-22T01:09:15.530Z,97621.98
2019-02-22T01:11:45.884Z,97613.93
2019-02-22T01:14:16.339Z,97617.64
2019-02-22T01:16:46.823Z,97614.89
2019-02-22T01:19:17.256Z,97614.55
2019-02-22T01:21:47.824Z,97604.73
2019-02-22T01:24:18.280Z,97611.66
2019-02-22T01:26:48.627Z,97605.59
2019-02-22T01:29:19.091Z,97603.16
2019-02-22T01:31:49.540Z,97600.54
2019-02-22T01:34:19.832Z,97599.44
2019-02-22T01:36:50.301Z,97600.23
2019-02-22T01:39:20.678Z,97602.84
2019-02-22T01:41:51.043Z,97603.84
2019-02-22T01:44:25.174Z,97597.98
2019-02-22T01:46:55.570Z,97593.92
2019-02-22T01:49:25.984Z,97588.00
2019-02-22T01:51:56.445Z,97593.00
2019-02-22T01:54:26.839Z,97584.47
2019-02-22T01:56:57.294Z,97585.12
2019-02-22T01:59:27.745Z,97581.51
2019-02-22T02:01:58.079Z,97582.67
2019-02-22T02:04:28.534Z,97583.84
2019-02-22T02:06:58.953Z,97590.08
2019-02-22T02:09:29.462Z,97593.69
2019-02-22T02:12:01.836Z,97588.11
2019-02-22T02:14:32.003Z,97593.03
2019-02-22T02:17:02.427Z,97590.90
2019-02-22T02:19:32.709Z,97595.13
2019-02-22T02:22:03.074Z,97593.34
2019-02-22T02:24:33.488Z,97599.09
2019-02-22T02:27:03.844Z,97598.67
2019-02-22T02:29:34.253Z,97602.25
2019-02-22T02:32:04.598Z,97607.52
2019-02-22T02:34:35.041Z,97604.62
2019-02-22T02:37:05.497Z,97604.08
2019-02-22T02:39:35.873Z,97606.11
2019-02-22T02:42:06.257Z,97609.86
2019-02-22T02:44:36.717Z,97604.63
2019-02-22T02:47:07.196Z,97601.53
2019-02-22T02:49:37.638Z,97609.04
2019-02-22T02:52:08.081Z,97608.01
2019-02-22T02:54:38.475Z,97628.94
2019-02-22T02:57:08.899Z,97623.05
2019-02-22T02:59:39.276Z,97617.85
2019-02-22T03:02:17.761Z,97630.45
2019-02-22T03:04:48.087Z,97632.03
2019-02-22T03:07:36.037Z,97628.94
2019-02-22T03:10:07.738Z,97624.73
2019-02-22T03:12:38.114Z,97627.35
2019-02-22T03:15:10.123Z,97630.24
2019-02-22T03:17:40.495Z,97624.97
2019-02-22T03:20:11.303Z,97635.44
2019-02-22T03:22:41.726Z,97625.98
2019-02-22T03:25:12.162Z,97627.62
2019-02-22T03:27:42.526Z,97628.66
2019-02-22T03:30:13.043Z,97633.20
2019-02-22T03:32:43.403Z,97628.66
2019-02-22T03:35:13.829Z,97634.86
2019-02-22T03:37:44.229Z,97634.86
2019-02-22T03:40:14.607Z,97646.77
2019-02-22T03:42:45.073Z,97648.55
2019-02-22T03:45:15.363Z,97649.94
2019-02-22T03:47:45.761Z,97646.32
2019-02-22T03:50:16.149Z,97655.09
2019-02-22T03:52:50.328Z,97656.37
2019-02-22T03:55:20.811Z,97666.48
2019-02-22T03:57:51.289Z,97658.36
2019-02-22T04:00:21.741Z,97663.42
2019-02-22T04:02:52.184Z,97674.06
2019-02-22T04:05:22.562Z,97674.13
2019-02-22T04:07:52.892Z,97669.67
2019-02-22T04:10:23.396Z,97668.03
2019-02-22T04:12:53.955Z,97664.10
2019-02-22T04:15:24.275Z,97656.25
2019-02-22T04:17:54.719Z,97660.31
2019-02-22T04:20:25.132Z,97658.97
2019-02-22T04:22:55.485Z,97665.85
2019-02-22T04:25:25.865Z,97667.30
2019-02-22T04:27:56.303Z,97666.47
2019-02-22T04:30:26.744Z,97668.13
2019-02-22T04:32:57.182Z,97663.02
2019-02-22T04:35:27.509Z,97667.02
2019-02-22T04:37:57.851Z,97662.62
2019-02-22T04:40:28.164Z,97669.30
2019-02-22T04:42:58.630Z,97671.56
2019-02-22T04:45:28.926Z,97670.59
2019-02-22T04:47:59.259Z,97678.45
2019-02-22T04:50:29.538Z,97673.97
2019-02-22T04:52:59.999Z,97671.80
2019-02-22T04:55:30.434Z,97671.09
2019-02-22T04:58:00.870Z,97667.83
2019-02-22T05:00:31.289Z,97673.28
2019-02-22T05:03:01.610Z,97670.55
2019-02-22T05:05:31.902Z,97674.59
2019-02-22T05:08:02.243Z,97675.34
2019-02-22T05:10:32.675Z,97679.88
2019-02-22T05:13:03.019Z,97679.14
2019-02-22T05:15:33.441Z,97670.30
2019-02-22T05:18:03.823Z,97674.53
2019-02-22T05:20:34.161Z,97671.25
2019-02-22T05:23:07.412Z,97679.09
2019-02-22T05:25:36.989Z,97681.75
2019-02-22T05:28:07.381Z,97681.14
2019-02-22T05:30:37.829Z,97674.61
2019-02-22T05:33:08.241Z,97673.96
2019-02-22T05:35:38.707Z,97669.72
2019-02-22T05:38:09.230Z,97672.12
2019-02-22T05:40:39.674Z,97674.21
2019-02-22T05:43:09.981Z,97678.88
2019-02-22T05:45:40.311Z,97678.39
2019-02-22T05:48:10.721Z,97687.47
2019-02-22T05:50:41.163Z,97678.80
2019-02-22T05:53:11.548Z,97687.33
2019-02-22T05:55:44.133Z,97685.06
2019-02-22T05:58:14.002Z,97687.28
2019-02-22T06:00:44.485Z,97692.55
2019-02-22T06:03:15.002Z,97699.60
2019-02-22T06:05:45.444Z,97696.42
2019-02-22T06:08:15.923Z,97706.53
2019-02-22T06:10:46.412Z,97708.93
2019-02-22T06:13:16.817Z,97714.64
2019-02-22T06:15:47.191Z,97720.21
2019-02-22T06:18:17.502Z,97715.68
2019-02-22T06:20:48.082Z,97724.53
2019-02-22T06:23:18.558Z,97721.25
2019-02-22T06:25:49.015Z,97716.34
2019-02-22T06:28:19.398Z,97729.70
2019-02-22T06:30:49.853Z,97737.55
2019-02-22T06:33:20.272Z,97738.16
2019-02-22T06:35:50.671Z,97748.96
2019-02-22T06:38:20.996Z,97755.14
2019-02-22T06:40:51.360Z,97760.37
2019-02-22T06:43:21.657Z,97752.62
2019-02-22T06:45:52.094Z,97765.73
2019-02-22T06:48:22.413Z,97757.47
2019-02-22T06:50:52.858Z,97764.22
2019-02-22T06:53:23.609Z,97765.27
2019-02-22T06:55:53.984Z,97764.95
2019-02-22T06:58:24.313Z,97768.36
2019-02-22T07:00:54.806Z,97775.72
2019-02-22T07:03:25.104Z,97776.25
2019-02-22T07:05:55.504Z,97780.46
2019-02-22T07:08:26.058Z,97782.52
2019-02-22T07:11:18.331Z,97788.23
2019-02-22T07:13:48.720Z,97789.27
2019-02-22T07:16:19.096Z,97784.61
2019-02-22T07:18:50.003Z,97800.99
2019-02-22T07:21:20.529Z,97800.42
2019-02-22T07:23:50.945Z,97802.03
2019-02-22T07:26:21.371Z,97798.59
2019-02-22T07:28:51.857Z,97802.86
2019-02-22T07:31:22.272Z,97820.64
2019-02-22T07:33:52.638Z,97817.23
2019-02-22T07:36:23.005Z,97824.17
2019-02-22T07:38:53.474Z,97823.88
2019-02-22T07:41:23.814Z,97830.69
2019-02-22T07:43:54.217Z,97832.07
2019-02-22T07:46:24.589Z,97839.22
2019-02-22T07:48:55.029Z,97840.52
2019-02-22T07:51:25.386Z,97836.95
2019-02-22T07:53:55.712Z,97843.48
2019-02-22T07:56:26.062Z,97838.41
2019-02-22T07:58:56.523Z,97844.38
2019-02-22T08:01:27.115Z,97842.06
2019-02-22T08:03:57.725Z,97834.27
2019-02-22T08:06:28.221Z,97835.02
2019-02-22T08:08:58.681Z,97833.63
2019-02-22T08:11:29.145Z,97828.88
2019-02-22T08:13:59.586Z,97831.77
2019-02-22T08:16:30.023Z,97841.23
2019-02-22T08:19:01.834Z,97844.64
2019-02-22T08:21:32.455Z,97848.64
2019-02-22T08:24:02.801Z,97852.43
2019-02-22T08:26:33.371Z,97857.98
2019-02-22T08:29:03.686Z,97858.06
2019-02-22T08:31:34.074Z,97866.57
2019-02-22T08:34:04.516Z,97876.73
2019-02-22T08:36:34.935Z,97876.91
2019-02-22T08:39:05.991Z,97882.76
2019-02-22T08:41:36.332Z,97885.47
2019-02-22T08:44:06.749Z,97886.24
2019-02-22T08:46:37.206Z,97885.55
2019-02-22T08:49:07.651Z,97893.88
2019-02-22T08:51:38.080Z,97897.55
2019-02-22T08:54:08.510Z,97897.94
2019-02-22T08:56:38.893Z,97901.64
2019-02-22T08:59:09.171Z,97904.05
2019-02-22T09:01:39.611Z,97902.73
2019-02-22T09:04:09.876Z,97902.66
2019-02-22T09:06:40.346Z,97909.16
2019-02-22T09:09:11.917Z,97913.37
2019-02-22T09:11:42.378Z,97900.55
2019-02-22T09:14:12.794Z,97894.23
2019-02-22T09:16:43.223Z,97890.78
2019-02-22T09:19:13.524Z,97895.84
2019-02-22T09:21:43.966Z,97897.89
2019-02-22T09:24:14.423Z,97902.86
2019-02-22T09:26:44.847Z,97906.39
2019-02-22T09:29:15.331Z,97909.00
2019-02-22T09:31:45.732Z,97904.53
2019-02-22T09:34:16.079Z,97919.06
2019-02-22T09:36:46.485Z,97922.37
2019-02-22T09:39:16.928Z,97917.12
2019-02-22T09:41:47.361Z,97914.41
2019-02-22T09:44:17.816Z,97916.55
2019-02-22T09:46:48.244Z,97912.17
2019-02-22T09:49:18.650Z,97913.73
2019-02-22T09:51:48.959Z,97918.97
2019-02-22T09:54:19.369Z,97920.53
2019-02-22T09:56:50.954Z,97926.94
2019-02-22T09:59:21.562Z,97931.91
2019-02-22T10:01:52.040Z,97939.60
2019-02-22T10:04:22.552Z,97939.98
2019-02-22T10:06:52.995Z,97945.54
2019-02-22T10:09:23.430Z,97952.72
2019-02-22T10:11:53.809Z,97960.99
2019-02-22T10:14:24.228Z,97963.27
2019-02-22T10:16:54.591Z,97957.15
2019-02-22T10:19:25.030Z,97958.88
2019-02-22T10:21:57.516Z,97974.69
2019-02-22T10:24:27.509Z,97986.52
2019-02-22T10:26:57.985Z,97985.48
2019-02-22T10:29:28.453Z,97987.09
2019-02-22T10:31:59.087Z,97988.52
2019-02-22T10:34:29.606Z,97994.16
2019-02-22T10:36:59.803Z,97998.77
2019-02-22T10:39:31.350Z,97999.84
2019-02-22T10:42:01.733Z,98003.30
2019-02-22T10:44:32.094Z,98010.03
2019-02-22T10:47:02.592Z,98007.72
2019-02-22T10:49:32.987Z,98005.83
2019-02-22T10:52:03.433Z,97997.69
2019-02-22T10:54:33.862Z,97998.39
2019-02-22T10:57:04.261Z,97997.78
2019-02-22T10:59:34.638Z,97997.16
2019-02-22T11:02:05.038Z,97995.48
2019-02-22T11:04:35.364Z,97999.16
2019-02-22T11:07:05.796Z,97998.39
2019-02-22T11:09:36.219Z,98002.53
2019-02-22T11:12:09.546Z,98002.06
2019-02-22T11:14:39.907Z,98010.92
2019-02-22T11:17:10.397Z,97998.61
2019-02-22T11:19:40.942Z,98000.75
2019-02-22T11:22:11.612Z,97998.05
2019-02-22T11:24:42.064Z,98000.38
2019-02-22T11:27:12.461Z,98001.68
2019-02-22T11:29:42.964Z,98001.20
2019-02-22T11:32:13.485Z,98001.59
2019-02-22T11:34:43.874Z,97996.69
2019-02-22T11:37:14.244Z,97996.37
2019-02-22T11:39:44.747Z,97989.44
2019-02-22T11:42:15.177Z,97986.64
2019-02-22T11:44:45.605Z,97993.73
2019-02-22T11:47:16.258Z,97994.23
2019-02-22T11:49:46.775Z,97998.63
2019-02-22T11:52:17.252Z,98000.89
2019-02-22T11:54:48.202Z,98003.80
2019-02-22T11:57:19.605Z,98007.44
2019-02-22T11:59:50.144Z,98011.66
2019-02-22T12:02:20.591Z,98010.98
2019-02-22T12:04:50.971Z,98008.54
2019-02-22T12:07:21.506Z,98007.14
2019-02-22T12:09:51.820Z,98011.44
2019-02-22T12:12:22.221Z,98011.11
2019-02-22T12:14:52.626Z,98014.39
2019-02-22T12:17:22.965Z,98023.88
2019-02-22T12:19:53.403Z,98017.86
2019-02-22T12:22:23.835Z,98024.39
2019-02-22T12:24:54.226Z,98035.30
2019-02-22T12:27:24.559Z,98031.34
2019-02-22T12:29:55.082Z,98028.81
2019-02-22T12:32:25.418Z,98031.92
2019-02-22T12:34:55.863Z,98032.91
2019-02-22T12:37:26.331Z,98032.55
2019-02-22T12:39:56.719Z,98024.70
2019-02-22T12:42:27.187Z,98031.07
2019-02-22T12:45:02.973Z,98033.28
2019-02-22T12:47:29.667Z,98030.93
2019-02-22T12:50:00.144Z,98029.56
2019-02-22T12:52:30.550Z,98029.92
2019-02-22T12:55:00.960Z,98031.97
2019-02-22T12:57:31.346Z,98030.08
2019-02-22T13:00:01.813Z,98035.08
2019-02-22T13:02:32.232Z,98038.09
2019-02-22T13:05:02.743Z,98038.99
2019-02-22T13:07:33.273Z,98032.27
2019-02-22T13:10:03.594Z,98040.45
2019-02-22T13:12:34.031Z,98039.56
2019-02-22T13:15:13.653Z,98047.25
2019-02-22T13:17:36.868Z,98042.61
2019-02-22T13:20:08.234Z,98046.08
2019-02-22T13:22:38.795Z,98049.58
2019-02-22T13:25:09.438Z,98059.72
2019-02-22T13:27:39.881Z,98056.67
2019-02-22T13:30:11.745Z,98062.47
2019-02-22T13:32:42.379Z,98062.30
2019-02-22T13:35:13.027Z,98064.97
2019-02-22T13:37:43.492Z,98068.91
2019-02-22T13:40:14.790Z,98067.59
2019-02-22T13:42:45.194Z,98064.73
2019-02-22T13:45:26.185Z,98067.94
2019-02-22T13:47:48.030Z,98072.10
2019-02-22T13:50:18.418Z,98069.53
2019-02-22T13:52:48.843Z,98070.73
2019-02-22T13:55:19.232Z,98063.14
2019-02-22T13:57:49.677Z,98068.92
2019-02-22T14:00:20.174Z,98073.48
2019-02-22T14:02:50.829Z,98073.89
2019-02-22T14:05:21.277Z,98076.11
2019-02-22T14:07:55.875Z,98069.25
2019-02-22T14:10:26.700Z,98069.12
2019-02-22T14:12:57.156Z,98074.31
2019-02-22T14:15:37.534Z,98073.34
2019-02-22T14:17:59.726Z,98091.69
2019-02-22T14:20:30.132Z,98084.94
2019-02-22T14:23:00.521Z,98088.36
2019-02-22T14:25:30.914Z,98087.24
2019-02-22T14:28:01.327Z,98089.37
2019-02-22T14:30:31.690Z,98085.86
2019-02-22T14:33:02.194Z,98090.23
2019-02-22T14:35:32.691Z,98096.03
2019-02-22T14:38:03.167Z,98102.41
2019-02-22T14:40:33.615Z,98102.38
2019-02-22T14:43:04.145Z,98100.84
2019-02-22T14:45:34.637Z,98095.01
2019-02-22T14:48:05.039Z,98104.89
2019-02-22T14:50:35.655Z,98108.66
2019-02-22T14:53:06.159Z,98112.77
2019-02-22T14:55:36.447Z,98111.80
2019-02-22T14:58:06.950Z,98115.09
2019-02-22T15:00:37.398Z,98116.69
2019-02-22T15:03:07.785Z,98116.69
2019-02-22T15:05:38.263Z,98116.17
2019-02-22T15:08:08.721Z,98120.19
2019-02-22T15:10:39.099Z,98116.95
2019-02-22T15:13:12.513Z,98123.83
2019-02-22T15:16:03.647Z,98125.28
2019-02-22T15:18:32.751Z,98126.59
2019-02-22T15:21:03.102Z,98130.88
2019-02-22T15:23:33.400Z,98127.22
2019-02-22T15:26:03.803Z,98142.98
2019-02-22T15:28:34.180Z,98143.95
2019-02-22T15:31:04.857Z,98150.68
2019-02-22T15:33:35.352Z,98147.98
2019-02-22T15:36:06.561Z,98149.87
2019-02-22T15:38:36.892Z,98148.18
2019-02-22T15:41:09.399Z,98154.84
2019-02-22T15:43:39.489Z,98156.59
2019-02-22T15:46:12.491Z,98160.80
2019-02-22T15:48:42.027Z,98160.76
2019-02-22T15:51:13.164Z,98168.38
2019-02-22T15:53:44.077Z,98160.81
2019-02-22T15:56:14.511Z,98162.74
2019-02-22T15:58:46.322Z,98164.63
2019-02-22T16:01:16.697Z,98170.48
2019-02-22T16:04:12.026Z,98168.30
2019-02-22T16:06:42.433Z,98169.17
2019-02-22T16:09:13.054Z,98163.05
2019-02-22T16:11:43.405Z,98169.61
2019-02-22T16:14:13.726Z,98175.20
2019-02-22T16:16:44.194Z,98183.33
2019-02-22T16:19:14.669Z,98185.55
2019-02-22T16:21:45.116Z,98183.14
2019-02-22T16:24:15.430Z,98180.17
2019-02-22T16:26:45.741Z,98182.39
2019-02-22T16:29:16.098Z,98179.36
2019-02-22T16:31:46.549Z,98175.63
2019-02-22T16:34:16.982Z,98184.72
2019-02-22T16:36:47.429Z,98178.72
2019-02-22T16:39:17.756Z,98180.67
2019-02-22T16:41:48.043Z,98189.08
2019-02-22T16:44:18.440Z,98187.91
2019-02-22T16:46:48.793Z,98190.94
2019-02-22T16:49:19.272Z,98189.88
2019-02-22T16:51:49.822Z,98196.72
2019-02-22T16:54:20.192Z,98196.28
2019-02-22T16:56:50.612Z,98203.94
2019-02-22T16:59:21.917Z,98200.14
2019-02-22T17:01:52.336Z,98204.91
2019-02-22T17:04:22.786Z,98205.03
2019-02-22T17:06:53.098Z,98204.13
2019-02-22T17:09:23.564Z,98210.05
2019-02-22T17:11:54.015Z,98209.24
2019-02-22T17:14:24.493Z,98216.81
2019-02-22T17:16:54.985Z,98221.57
2019-02-22T17:19:25.319Z,98222.88
2019-02-22T17:21:55.626Z,98223.71
2019-02-22T17:24:26.051Z,98226.69
2019-02-22T17:26:56.435Z,98235.98
2019-02-22T17:29:26.874Z,98234.44
2019-02-22T17:31:57.282Z,98238.30
2019-02-22T17:34:27.736Z,98243.25
2019-02-22T17:36:58.066Z,98249.84
2019-02-22T17:39:28.404Z,98255.61
2019-02-22T17:41:58.880Z,98259.72
2019-02-22T17:44:29.131Z,98253.63
2019-02-22T17:46:59.540Z,98262.84
2019-02-22T17:49:29.962Z,98265.98
2019-02-22T17:52:00.175Z,98270.86
2019-02-22T17:54:30.593Z,98274.70
2019-02-22T17:57:00.938Z,98283.52
2019-02-22T17:59:31.326Z,98280.81
2019-02-22T18:02:01.707Z,98279.67
2019-02-22T18:04:32.056Z,98281.13
2019-02-22T18:07:02.416Z,98288.54
2019-02-22T18:09:32.930Z,98291.31
2019-02-22T18:12:03.316Z,98294.88
2019-02-22T18:14:33.725Z,98294.16
2019-02-22T18:17:08.413Z,98297.17
2019-02-22T18:19:36.140Z,98298.00
2019-02-22T18:22:06.585Z,98301.50
2019-02-22T18:24:37.025Z,98304.35
2019-02-22T18:27:07.361Z,98301.97
2019-02-22T18:29:37.905Z,98308.59
2019-02-22T18:32:08.350Z,98310.26
2019-02-22T18:34:38.797Z,98313.76
2019-02-22T18:37:09.185Z,98313.24
2019-02-22T18:39:39.656Z,98320.58
2019-02-22T18:42:10.101Z,98318.16
2019-02-22T18:44:40.547Z,98317.20
2019-02-22T18:47:19.026Z,98324.09
2019-02-22T18:49:43.015Z,98330.37
2019-02-22T18:52:13.346Z,98334.56
2019-02-22T18:54:46.171Z,98332.82
2019-02-22T18:57:15.983Z,98329.05
2019-02-22T18:59:46.402Z,98346.09
2019-02-22T19:02:16.938Z,98350.95
2019-02-22T19:04:47.277Z,98352.31
2019-02-22T19:07:17.796Z,98352.91
2019-02-22T19:09:48.355Z,98356.23
2019-02-22T19:12:18.786Z,98353.00
2019-02-22T19:14:49.077Z,98356.41
2019-02-22T19:17:29.893Z,98363.64
2019-02-22T19:19:51.682Z,98371.48
2019-02-22T19:22:22.110Z,98368.19
2019-02-22T19:24:52.634Z,98372.73
2019-02-22T19:27:23.057Z,98374.48
2019-02-22T19:29:53.448Z,98376.16
2019-02-22T19:32:23.898Z,98384.59
2019-02-22T19:34:54.591Z,98375.48
2019-02-22T19:37:26.046Z,98374.18
2019-02-22T19:39:56.451Z,98382.26
2019-02-22T19:42:26.933Z,98379.64
2019-02-22T19:44:57.383Z,98385.00
2019-02-22T19:47:27.703Z,98387.99
2019-02-22T19:49:58.124Z,98382.90
2019-02-22T19:52:28.460Z,98388.50
2019-02-22T19:54:58.782Z,98386.49
2019-02-22T19:57:29.222Z,98389.00
2019-02-22T19:59:59.716Z,98390.08
2019-02-22T20:02:30.145Z,98398.96
2019-02-22T20:05:00.493Z,98400.16
2019-02-22T20:07:30.749Z,98405.98
2019-02-22T20:10:02.982Z,98411.95
2019-02-22T20:12:33.491Z,98403.98
2019-02-22T20:15:04.193Z,98415.27
2019-02-22T20:17:34.672Z,98424.41
2019-02-22T20:20:06.003Z,98422.22
2019-02-22T20:22:36.288Z,98415.80
2019-02-22T20:25:07.190Z,98418.04
2019-02-22T20:27:37.692Z,98425.27
2019-02-22T20:30:10.595Z,98435.69
2019-02-22T20:32:41.122Z,98438.41
2019-02-22T20:35:15.065Z,98452.39
2019-02-22T20:37:52.611Z,98450.72
2019-02-22T20:40:17.569Z,98452.28
2019-02-22T20:42:48.000Z,98457.39
2019-02-22T20:45:18.414Z,98454.78
2019-02-22T20:47:48.826Z,98456.58
2019-02-22T20:50:19.121Z,98463.82
2019-02-22T20:52:49.573Z,98463.37
2019-02-22T20:55:19.992Z,98470.22
2019-02-22T20:57:50.412Z,98468.59
2019-02-22T21:00:20.843Z,98477.35
2019-02-22T21:02:51.216Z,98481.39
2019-02-22T21:05:21.633Z,98495.89
2019-02-22T21:07:52.163Z,98499.92
2019-02-22T21:10:22.561Z,98500.66
2019-02-22T21:12:52.956Z,98500.41
2019-02-22T21:15:23.463Z,98503.12
2019-02-22T21:17:53.766Z,98507.65
2019-02-22T21:20:24.186Z,98511.09
2019-02-22T21:22:54.579Z,98509.78
2019-02-22T21:25:24.918Z,98507.17
2019-02-22T21:27:55.439Z,98510.73
2019-02-22T21:30:25.892Z,98508.81
2019-02-22T21:32:57.638Z,98511.55
2019-02-22T21:35:27.960Z,98511.39
2019-02-22T21:37:58.290Z,98506.87
2019-02-22T21:40:28.620Z,98506.59
2019-02-22T21:42:59.055Z,98503.74
2019-02-22T21:45:29.893Z,98502.40
2019-02-22T21:48:00.372Z,98510.02
2019-02-22T21:50:30.808Z,98505.69
2019-02-22T21:53:01.279Z,98500.63
2019-02-22T21:55:31.650Z,98506.00
2019-02-22T21:58:02.089Z,98502.73
2019-02-22T22:00:32.911Z,98502.89
2019-02-22T22:03:03.464Z,98500.59
2019-02-22T22:05:34.128Z,98518.15
2019-02-22T22:08:04.606Z,98511.33
2019-02-22T22:10:34.939Z,98524.00
2019-02-22T22:13:05.477Z,98527.45
2019-02-22T22:15:35.787Z,98522.34
2019-02-22T22:18:06.197Z,98527.86
2019-02-22T22:20:36.574Z,98525.58
2019-02-22T22:23:07.068Z,98524.74
2019-02-22T22:25:37.457Z,98523.95
2019-02-22T22:28:07.909Z,98524.45
2019-02-22T22:30:38.338Z,98525.42
2019-02-22T22:33:08.781Z,98528.86
2019-02-22T22:35:39.212Z,98527.69
2019-02-22T22:38:09.704Z,98528.55
2019-02-22T22:40:40.145Z,98533.61
2019-02-22T22:43:10.547Z,98532.89
2019-02-22T22:45:40.862Z,98529.12
2019-02-22T22:48:11.296Z,98531.28
2019-02-22T22:50:41.721Z,98533.72
2019-02-22T22:53:12.114Z,98535.95
2019-02-22T22:55:42.400Z,98539.38
2019-02-22T22:58:12.833Z,98539.55
2019-02-22T23:01:24.964Z,98535.16
2019-02-22T23:03:55.496Z,98537.37
2019-02-22T23:06:25.942Z,98542.58
2019-02-22T23:08:56.408Z,98539.20
2019-02-22T23:11:26.866Z,98530.70
2019-02-22T23:13:57.160Z,98533.91
2019-02-22T23:16:27.498Z,98544.94
2019-02-22T23:19:01.947Z,98539.61
2019-02-22T23:21:30.290Z,98545.55
2019-02-22T23:24:00.663Z,98544.23
2019-02-22T23:26:31.166Z,98549.80
2019-02-22T23:29:01.972Z,98553.35
2019-02-22T23:31:32.600Z,98557.28
2019-02-22T23:34:03.028Z,98558.95
2019-02-22T23:36:33.480Z,98550.41
2019-02-22T23:39:04.942Z,98549.12
2019-02-22T23:41:35.378Z,98550.11
2019-02-22T23:44:06.036Z,98546.94
2019-02-22T23:46:36.517Z,98545.11
2019-02-22T23:49:13.112Z,98540.13
2019-02-22T23:51:39.255Z,98535.84
2019-02-22T23:54:09.594Z,98535.48
2019-02-22T23:56:39.949Z,98540.59
2019-02-22T23:59:10.380Z,98538.48
